sensor_id;sensor_type;location;lat;lon;timestamp;temperature;humidity
11944;DHT22;6031;50.220;10.122;2023-08-08T00:00:14;11.20;99.90
11944;DHT22;6031;50.220;10.122;2023-08-08T00:02:39;11.20;99.90
11944;DHT22;6031;50.220;10.122;2023-08-08T00:05:05;11.20;99.90
11944;DHT22;6031;50.220;10.122;2023-08-08T00:07:31;11.20;99.90
11944;DHT22;6031;50.220;10.122;2023-08-08T00:09:56;11.20;99.90
11944;DHT22;6031;50.220;10.122;2023-08-08T00:12:22;11.20;99.90
11944;DHT22;6031;50.220;10.122;2023-08-08T00:14:48;11.20;99.90
11944;DHT22;6031;50.220;10.122;2023-08-08T00:17:14;11.30;99.90
11944;DHT22;6031;50.220;10.122;2023-08-08T00:19:39;11.40;99.90
11944;DHT22;6031;50.220;10.122;2023-08-08T00:22:05;11.30;99.90
11944;DHT22;6031;50.220;10.122;2023-08-08T00:24:31;11.40;99.90
11944;DHT22;6031;50.220;10.122;2023-08-08T00:26:56;11.40;99.90
11944;DHT22;6031;50.220;10.122;2023-08-08T00:29:22;11.40;99.90
11944;DHT22;6031;50.220;10.122;2023-08-08T00:31:47;11.30;99.90
11944;DHT22;6031;50.220;10.122;2023-08-08T00:34:13;11.20;99.90
11944;DHT22;6031;50.220;10.122;2023-08-08T00:36:38;11.30;99.90
11944;DHT22;6031;50.220;10.122;2023-08-08T00:39:04;11.30;99.90
11944;DHT22;6031;50.220;10.122;2023-08-08T00:41:29;11.30;99.90
11944;DHT22;6031;50.220;10.122;2023-08-08T00:43:55;11.30;99.90
11944;DHT22;6031;50.220;10.122;2023-08-08T00:46:22;11.40;99.90
11944;DHT22;6031;50.220;10.122;2023-08-08T00:48:51;11.50;99.90
11944;DHT22;6031;50.220;10.122;2023-08-08T00:51:17;11.50;99.90
11944;DHT22;6031;50.220;10.122;2023-08-08T00:53:44;11.40;99.90
11944;DHT22;6031;50.220;10.122;2023-08-08T00:56:12;11.40;99.90
11944;DHT22;6031;50.220;10.122;2023-08-08T00:58:38;11.40;99.90
11944;DHT22;6031;50.220;10.122;2023-08-08T01:01:04;11.30;99.90
11944;DHT22;6031;50.220;10.122;2023-08-08T01:03:30;11.30;99.90
11944;DHT22;6031;50.220;10.122;2023-08-08T01:06:31;11.30;99.90
11944;DHT22;6031;50.220;10.122;2023-08-08T01:09:09;11.30;99.90
11944;DHT22;6031;50.220;10.122;2023-08-08T01:11:38;11.30;99.90
11944;DHT22;6031;50.220;10.122;2023-08-08T01:14:06;11.20;99.90
11944;DHT22;6031;50.220;10.122;2023-08-08T01:16:33;11.20;99.90
11944;DHT22;6031;50.220;10.122;2023-08-08T01:18:59;11.10;99.90
11944;DHT22;6031;50.220;10.122;2023-08-08T01:21:27;11.10;99.90
11944;DHT22;6031;50.220;10.122;2023-08-08T01:24:00;11.10;99.90
11944;DHT22;6031;50.220;10.122;2023-08-08T01:26:26;11.30;99.90
11944;DHT22;6031;50.220;10.122;2023-08-08T01:28:53;11.20;99.90
11944;DHT22;6031;50.220;10.122;2023-08-08T01:31:20;11.10;99.90
11944;DHT22;6031;50.220;10.122;2023-08-08T01:33:45;11.10;99.90
11944;DHT22;6031;50.220;10.122;2023-08-08T01:36:15;11.10;99.90
11944;DHT22;6031;50.220;10.122;2023-08-08T01:38:46;11.00;99.90
11944;DHT22;6031;50.220;10.122;2023-08-08T01:41:13;10.90;99.90
11944;DHT22;6031;50.220;10.122;2023-08-08T01:43:40;10.90;99.90
11944;DHT22;6031;50.220;10.122;2023-08-08T01:46:07;10.80;99.90
11944;DHT22;6031;50.220;10.122;2023-08-08T01:48:33;10.70;99.90
11944;DHT22;6031;50.220;10.122;2023-08-08T01:50:58;10.60;99.90
11944;DHT22;6031;50.220;10.122;2023-08-08T01:53:24;10.50;99.90
11944;DHT22;6031;50.220;10.122;2023-08-08T01:55:50;10.50;99.90
11944;DHT22;6031;50.220;10.122;2023-08-08T01:58:18;10.50;99.90
11944;DHT22;6031;50.220;10.122;2023-08-08T02:00:43;10.60;99.90
11944;DHT22;6031;50.220;10.122;2023-08-08T02:03:10;10.60;99.90
11944;DHT22;6031;50.220;10.122;2023-08-08T02:05:36;10.60;99.90
11944;DHT22;6031;50.220;10.122;2023-08-08T02:08:02;10.60;99.90
11944;DHT22;6031;50.220;10.122;2023-08-08T02:10:27;10.70;99.90
11944;DHT22;6031;50.220;10.122;2023-08-08T02:12:53;10.70;99.90
11944;DHT22;6031;50.220;10.122;2023-08-08T02:15:18;10.70;99.90
11944;DHT22;6031;50.220;10.122;2023-08-08T02:17:45;10.70;99.90
11944;DHT22;6031;50.220;10.122;2023-08-08T02:20:11;10.80;99.90
11944;DHT22;6031;50.220;10.122;2023-08-08T02:22:37;10.80;99.90
11944;DHT22;6031;50.220;10.122;2023-08-08T02:25:03;10.90;99.90
11944;DHT22;6031;50.220;10.122;2023-08-08T02:27:29;10.90;99.90
11944;DHT22;6031;50.220;10.122;2023-08-08T02:29:54;10.90;99.90
11944;DHT22;6031;50.220;10.122;2023-08-08T02:32:20;10.90;99.90
11944;DHT22;6031;50.220;10.122;2023-08-08T02:34:45;11.00;99.90
11944;DHT22;6031;50.220;10.122;2023-08-08T02:37:11;10.80;99.90
11944;DHT22;6031;50.220;10.122;2023-08-08T02:39:36;10.80;99.90
11944;DHT22;6031;50.220;10.122;2023-08-08T02:42:02;10.80;99.90
11944;DHT22;6031;50.220;10.122;2023-08-08T02:44:27;10.80;99.90
11944;DHT22;6031;50.220;10.122;2023-08-08T02:46:53;10.80;99.90
11944;DHT22;6031;50.220;10.122;2023-08-08T02:49:18;10.80;99.90
11944;DHT22;6031;50.220;10.122;2023-08-08T02:51:44;10.80;99.90
11944;DHT22;6031;50.220;10.122;2023-08-08T02:54:10;10.70;99.90
11944;DHT22;6031;50.220;10.122;2023-08-08T02:56:35;10.70;99.90
11944;DHT22;6031;50.220;10.122;2023-08-08T02:59:01;10.70;99.90
11944;DHT22;6031;50.220;10.122;2023-08-08T03:01:26;10.80;99.90
11944;DHT22;6031;50.220;10.122;2023-08-08T03:03:52;10.80;99.90
11944;DHT22;6031;50.220;10.122;2023-08-08T03:06:17;10.90;99.90
11944;DHT22;6031;50.220;10.122;2023-08-08T03:08:43;10.90;99.90
11944;DHT22;6031;50.220;10.122;2023-08-08T03:11:08;10.90;99.90
11944;DHT22;6031;50.220;10.122;2023-08-08T03:13:34;10.80;99.90
11944;DHT22;6031;50.220;10.122;2023-08-08T03:15:59;10.90;99.90
11944;DHT22;6031;50.220;10.122;2023-08-08T03:18:25;10.90;99.90
11944;DHT22;6031;50.220;10.122;2023-08-08T03:20:51;10.90;99.90
11944;DHT22;6031;50.220;10.122;2023-08-08T03:23:17;10.90;99.90
11944;DHT22;6031;50.220;10.122;2023-08-08T03:25:43;10.90;99.90
11944;DHT22;6031;50.220;10.122;2023-08-08T03:28:08;10.90;99.90
11944;DHT22;6031;50.220;10.122;2023-08-08T03:30:36;10.90;99.90
11944;DHT22;6031;50.220;10.122;2023-08-08T03:33:03;10.90;99.90
11944;DHT22;6031;50.220;10.122;2023-08-08T03:35:28;10.80;99.90
11944;DHT22;6031;50.220;10.122;2023-08-08T03:37:54;10.80;99.90
11944;DHT22;6031;50.220;10.122;2023-08-08T03:40:19;10.70;99.90
11944;DHT22;6031;50.220;10.122;2023-08-08T03:42:45;10.70;99.90
11944;DHT22;6031;50.220;10.122;2023-08-08T03:45:11;10.60;99.90
11944;DHT22;6031;50.220;10.122;2023-08-08T03:47:36;10.50;99.90
11944;DHT22;6031;50.220;10.122;2023-08-08T03:50:02;10.40;99.90
11944;DHT22;6031;50.220;10.122;2023-08-08T03:52:28;10.40;99.90
11944;DHT22;6031;50.220;10.122;2023-08-08T03:54:54;10.30;99.90
11944;DHT22;6031;50.220;10.122;2023-08-08T03:57:19;10.20;99.90
11944;DHT22;6031;50.220;10.122;2023-08-08T03:59:45;10.20;99.90
11944;DHT22;6031;50.220;10.122;2023-08-08T04:02:10;10.10;99.90
11944;DHT22;6031;50.220;10.122;2023-08-08T04:04:36;10.10;99.90
11944;DHT22;6031;50.220;10.122;2023-08-08T04:07:01;10.00;99.90
11944;DHT22;6031;50.220;10.122;2023-08-08T04:09:27;10.00;99.90
11944;DHT22;6031;50.220;10.122;2023-08-08T04:11:52;10.00;99.90
11944;DHT22;6031;50.220;10.122;2023-08-08T04:14:18;9.90;99.90
11944;DHT22;6031;50.220;10.122;2023-08-08T04:16:43;9.90;99.90
11944;DHT22;6031;50.220;10.122;2023-08-08T04:19:09;9.80;99.90
11944;DHT22;6031;50.220;10.122;2023-08-08T04:21:34;9.80;99.90
11944;DHT22;6031;50.220;10.122;2023-08-08T04:24:00;9.80;99.90
11944;DHT22;6031;50.220;10.122;2023-08-08T04:26:26;9.80;99.90
11944;DHT22;6031;50.220;10.122;2023-08-08T04:28:52;9.80;99.90
11944;DHT22;6031;50.220;10.122;2023-08-08T04:31:17;9.80;99.90
11944;DHT22;6031;50.220;10.122;2023-08-08T04:33:43;9.80;99.90
11944;DHT22;6031;50.220;10.122;2023-08-08T04:36:08;9.90;99.90
11944;DHT22;6031;50.220;10.122;2023-08-08T04:38:34;9.90;99.90
11944;DHT22;6031;50.220;10.122;2023-08-08T04:41:00;10.00;99.90
11944;DHT22;6031;50.220;10.122;2023-08-08T04:43:25;10.00;99.90
11944;DHT22;6031;50.220;10.122;2023-08-08T04:45:53;10.10;99.90
11944;DHT22;6031;50.220;10.122;2023-08-08T04:48:18;10.10;99.90
11944;DHT22;6031;50.220;10.122;2023-08-08T04:50:46;10.00;99.90
11944;DHT22;6031;50.220;10.122;2023-08-08T04:53:11;9.90;99.90
11944;DHT22;6031;50.220;10.122;2023-08-08T04:55:37;10.10;99.90
11944;DHT22;6031;50.220;10.122;2023-08-08T04:58:02;10.10;99.90
11944;DHT22;6031;50.220;10.122;2023-08-08T05:00:28;10.10;99.90
11944;DHT22;6031;50.220;10.122;2023-08-08T05:02:54;10.40;99.90
11944;DHT22;6031;50.220;10.122;2023-08-08T05:05:19;10.50;99.90
11944;DHT22;6031;50.220;10.122;2023-08-08T05:07:45;10.50;99.90
11944;DHT22;6031;50.220;10.122;2023-08-08T05:10:10;10.60;99.90
11944;DHT22;6031;50.220;10.122;2023-08-08T05:12:36;10.80;99.90
11944;DHT22;6031;50.220;10.122;2023-08-08T05:15:01;10.90;99.90
11944;DHT22;6031;50.220;10.122;2023-08-08T05:17:29;10.90;99.90
11944;DHT22;6031;50.220;10.122;2023-08-08T05:19:54;11.10;99.90
11944;DHT22;6031;50.220;10.122;2023-08-08T05:22:20;11.20;99.90
11944;DHT22;6031;50.220;10.122;2023-08-08T05:24:46;11.20;99.90
11944;DHT22;6031;50.220;10.122;2023-08-08T05:27:11;11.30;99.90
11944;DHT22;6031;50.220;10.122;2023-08-08T05:29:37;11.30;99.90
11944;DHT22;6031;50.220;10.122;2023-08-08T05:32:04;11.40;99.90
11944;DHT22;6031;50.220;10.122;2023-08-08T05:34:32;11.50;99.90
11944;DHT22;6031;50.220;10.122;2023-08-08T05:36:58;11.70;99.90
11944;DHT22;6031;50.220;10.122;2023-08-08T05:39:23;11.90;99.90
11944;DHT22;6031;50.220;10.122;2023-08-08T05:41:48;12.10;99.90
11944;DHT22;6031;50.220;10.122;2023-08-08T05:44:14;12.40;99.90
11944;DHT22;6031;50.220;10.122;2023-08-08T05:46:40;12.70;99.90
11944;DHT22;6031;50.220;10.122;2023-08-08T05:49:05;12.90;1.00
11944;DHT22;6031;50.220;10.122;2023-08-08T05:51:32;13.10;1.00
11944;DHT22;6031;50.220;10.122;2023-08-08T05:53:57;13.20;99.90
11944;DHT22;6031;50.220;10.122;2023-08-08T05:56:23;13.30;1.00
11944;DHT22;6031;50.220;10.122;2023-08-08T05:58:48;13.60;1.00
11944;DHT22;6031;50.220;10.122;2023-08-08T06:01:14;13.70;1.00
11944;DHT22;6031;50.220;10.122;2023-08-08T06:03:39;14.00;99.90
11944;DHT22;6031;50.220;10.122;2023-08-08T06:06:05;14.60;1.00
11944;DHT22;6031;50.220;10.122;2023-08-08T06:08:31;15.70;1.00
11944;DHT22;6031;50.220;10.122;2023-08-08T06:10:57;16.90;1.00
11944;DHT22;6031;50.220;10.122;2023-08-08T06:13:23;17.70;99.90
11944;DHT22;6031;50.220;10.122;2023-08-08T06:15:49;18.40;53.40
11944;DHT22;6031;50.220;10.122;2023-08-08T06:18:14;18.80;99.90
11944;DHT22;6031;50.220;10.122;2023-08-08T06:20:40;19.10;1.00
11944;DHT22;6031;50.220;10.122;2023-08-08T06:23:06;19.60;99.90
11944;DHT22;6031;50.220;10.122;2023-08-08T06:25:32;19.80;99.90
11944;DHT22;6031;50.220;10.122;2023-08-08T06:27:57;20.10;45.60
11944;DHT22;6031;50.220;10.122;2023-08-08T06:30:23;20.40;65.00
11944;DHT22;6031;50.220;10.122;2023-08-08T06:32:48;20.30;1.00
11944;DHT22;6031;50.220;10.122;2023-08-08T06:35:14;20.10;34.80
11944;DHT22;6031;50.220;10.122;2023-08-08T06:37:42;19.60;99.90
11944;DHT22;6031;50.220;10.122;2023-08-08T06:40:08;19.70;99.90
11944;DHT22;6031;50.220;10.122;2023-08-08T06:42:34;20.20;20.10
11944;DHT22;6031;50.220;10.122;2023-08-08T06:45:00;20.50;1.00
11944;DHT22;6031;50.220;10.122;2023-08-08T06:47:25;20.50;1.00
11944;DHT22;6031;50.220;10.122;2023-08-08T06:49:51;20.70;1.00
11944;DHT22;6031;50.220;10.122;2023-08-08T06:52:17;20.40;1.00
11944;DHT22;6031;50.220;10.122;2023-08-08T06:54:42;20.50;1.00
11944;DHT22;6031;50.220;10.122;2023-08-08T06:57:08;20.40;1.00
11944;DHT22;6031;50.220;10.122;2023-08-08T06:59:33;20.90;1.00
11944;DHT22;6031;50.220;10.122;2023-08-08T07:01:59;20.60;1.00
11944;DHT22;6031;50.220;10.122;2023-08-08T07:04:24;20.20;1.00
11944;DHT22;6031;50.220;10.122;2023-08-08T07:06:50;20.20;1.00
11944;DHT22;6031;50.220;10.122;2023-08-08T07:09:16;21.00;1.00
11944;DHT22;6031;50.220;10.122;2023-08-08T07:11:41;21.60;1.00
11944;DHT22;6031;50.220;10.122;2023-08-08T07:14:07;22.00;1.00
11944;DHT22;6031;50.220;10.122;2023-08-08T07:16:33;21.50;1.00
11944;DHT22;6031;50.220;10.122;2023-08-08T07:18:59;21.90;1.00
11944;DHT22;6031;50.220;10.122;2023-08-08T07:21:24;22.50;1.00
11944;DHT22;6031;50.220;10.122;2023-08-08T07:23:50;22.80;1.00
11944;DHT22;6031;50.220;10.122;2023-08-08T07:26:16;22.60;1.00
11944;DHT22;6031;50.220;10.122;2023-08-08T07:28:41;22.60;1.00
11944;DHT22;6031;50.220;10.122;2023-08-08T07:31:07;23.40;1.00
11944;DHT22;6031;50.220;10.122;2023-08-08T07:33:32;23.90;1.00
11944;DHT22;6031;50.220;10.122;2023-08-08T07:35:58;23.10;1.00
11944;DHT22;6031;50.220;10.122;2023-08-08T07:38:23;23.40;1.00
11944;DHT22;6031;50.220;10.122;2023-08-08T07:40:49;24.10;1.00
11944;DHT22;6031;50.220;10.122;2023-08-08T07:43:14;24.00;1.00
11944;DHT22;6031;50.220;10.122;2023-08-08T07:45:40;23.40;1.00
11944;DHT22;6031;50.220;10.122;2023-08-08T07:48:06;23.50;1.00
11944;DHT22;6031;50.220;10.122;2023-08-08T07:50:32;23.30;1.00
11944;DHT22;6031;50.220;10.122;2023-08-08T07:52:57;22.70;1.00
11944;DHT22;6031;50.220;10.122;2023-08-08T07:55:23;22.50;1.00
11944;DHT22;6031;50.220;10.122;2023-08-08T07:57:48;22.80;1.00
11944;DHT22;6031;50.220;10.122;2023-08-08T08:00:14;23.10;1.00
11944;DHT22;6031;50.220;10.122;2023-08-08T08:02:44;22.80;1.00
11944;DHT22;6031;50.220;10.122;2023-08-08T08:05:11;23.20;1.00
11944;DHT22;6031;50.220;10.122;2023-08-08T08:07:37;23.00;1.00
11944;DHT22;6031;50.220;10.122;2023-08-08T08:10:05;23.20;1.00
11944;DHT22;6031;50.220;10.122;2023-08-08T08:12:31;23.40;1.00
11944;DHT22;6031;50.220;10.122;2023-08-08T08:14:57;24.00;1.00
11944;DHT22;6031;50.220;10.122;2023-08-08T08:17:23;25.10;1.00
11944;DHT22;6031;50.220;10.122;2023-08-08T08:19:50;25.20;1.00
11944;DHT22;6031;50.220;10.122;2023-08-08T08:22:16;25.40;1.00
11944;DHT22;6031;50.220;10.122;2023-08-08T08:24:41;25.10;1.00
11944;DHT22;6031;50.220;10.122;2023-08-08T08:27:07;25.20;1.00
11944;DHT22;6031;50.220;10.122;2023-08-08T08:29:32;25.20;1.00
11944;DHT22;6031;50.220;10.122;2023-08-08T08:31:58;24.50;1.00
11944;DHT22;6031;50.220;10.122;2023-08-08T08:34:24;24.80;1.00
11944;DHT22;6031;50.220;10.122;2023-08-08T08:36:49;25.20;1.00
11944;DHT22;6031;50.220;10.122;2023-08-08T08:39:15;26.20;1.00
11944;DHT22;6031;50.220;10.122;2023-08-08T08:41:40;27.10;1.00
11944;DHT22;6031;50.220;10.122;2023-08-08T08:44:06;27.20;1.00
11944;DHT22;6031;50.220;10.122;2023-08-08T08:46:32;27.30;1.00
11944;DHT22;6031;50.220;10.122;2023-08-08T08:49:02;26.90;1.00
11944;DHT22;6031;50.220;10.122;2023-08-08T08:51:29;26.70;1.00
11944;DHT22;6031;50.220;10.122;2023-08-08T08:53:56;25.80;1.00
11944;DHT22;6031;50.220;10.122;2023-08-08T08:56:23;25.00;1.00
11944;DHT22;6031;50.220;10.122;2023-08-08T08:58:49;24.50;1.00
11944;DHT22;6031;50.220;10.122;2023-08-08T09:01:15;24.60;1.00
11944;DHT22;6031;50.220;10.122;2023-08-08T09:03:44;24.10;1.00
11944;DHT22;6031;50.220;10.122;2023-08-08T09:06:11;23.60;1.00
11944;DHT22;6031;50.220;10.122;2023-08-08T09:08:37;24.30;1.00
11944;DHT22;6031;50.220;10.122;2023-08-08T09:11:03;24.80;1.00
11944;DHT22;6031;50.220;10.122;2023-08-08T09:13:36;24.80;1.00
11944;DHT22;6031;50.220;10.122;2023-08-08T09:16:02;24.00;1.00
11944;DHT22;6031;50.220;10.122;2023-08-08T09:18:31;23.30;1.00
11944;DHT22;6031;50.220;10.122;2023-08-08T09:20:58;23.30;1.00
11944;DHT22;6031;50.220;10.122;2023-08-08T09:23:23;24.10;1.00
11944;DHT22;6031;50.220;10.122;2023-08-08T09:25:49;24.40;1.00
11944;DHT22;6031;50.220;10.122;2023-08-08T09:28:15;24.70;1.00
11944;DHT22;6031;50.220;10.122;2023-08-08T09:30:42;24.90;1.00
11944;DHT22;6031;50.220;10.122;2023-08-08T09:33:08;24.80;1.00
11944;DHT22;6031;50.220;10.122;2023-08-08T09:35:34;24.70;1.00
11944;DHT22;6031;50.220;10.122;2023-08-08T09:37:59;25.00;1.00
11944;DHT22;6031;50.220;10.122;2023-08-08T09:40:25;24.90;1.00
11944;DHT22;6031;50.220;10.122;2023-08-08T09:42:53;24.80;1.00
11944;DHT22;6031;50.220;10.122;2023-08-08T09:45:20;26.40;1.00
11944;DHT22;6031;50.220;10.122;2023-08-08T09:47:45;26.30;99.90
11944;DHT22;6031;50.220;10.122;2023-08-08T09:50:11;26.50;99.90
11944;DHT22;6031;50.220;10.122;2023-08-08T09:52:38;26.00;99.90
11944;DHT22;6031;50.220;10.122;2023-08-08T09:55:07;25.90;99.90
11944;DHT22;6031;50.220;10.122;2023-08-08T09:57:33;25.20;99.90
11944;DHT22;6031;50.220;10.122;2023-08-08T09:59:58;25.30;99.90
11944;DHT22;6031;50.220;10.122;2023-08-08T10:02:25;24.70;99.90
11944;DHT22;6031;50.220;10.122;2023-08-08T10:04:51;25.20;99.90
11944;DHT22;6031;50.220;10.122;2023-08-08T10:07:17;25.80;99.90
11944;DHT22;6031;50.220;10.122;2023-08-08T10:09:43;26.30;99.90
11944;DHT22;6031;50.220;10.122;2023-08-08T10:12:10;27.20;99.90
11944;DHT22;6031;50.220;10.122;2023-08-08T10:14:37;26.70;99.90
11944;DHT22;6031;50.220;10.122;2023-08-08T10:17:06;27.70;99.90
11944;DHT22;6031;50.220;10.122;2023-08-08T10:19:32;27.00;99.90
11944;DHT22;6031;50.220;10.122;2023-08-08T10:22:00;26.80;99.90
11944;DHT22;6031;50.220;10.122;2023-08-08T10:24:34;25.30;99.90
11944;DHT22;6031;50.220;10.122;2023-08-08T10:27:02;23.70;99.90
11944;DHT22;6031;50.220;10.122;2023-08-08T10:29:29;23.60;99.90
11944;DHT22;6031;50.220;10.122;2023-08-08T10:32:00;23.30;99.90
11944;DHT22;6031;50.220;10.122;2023-08-08T10:34:54;23.30;99.90
11944;DHT22;6031;50.220;10.122;2023-08-08T10:37:20;24.20;99.90
11944;DHT22;6031;50.220;10.122;2023-08-08T10:39:52;25.80;99.90
11944;DHT22;6031;50.220;10.122;2023-08-08T10:42:20;25.00;99.90
11944;DHT22;6031;50.220;10.122;2023-08-08T10:44:58;24.40;99.90
11944;DHT22;6031;50.220;10.122;2023-08-08T10:47:24;24.10;99.90
11944;DHT22;6031;50.220;10.122;2023-08-08T10:50:10;24.30;99.90
11944;DHT22;6031;50.220;10.122;2023-08-08T10:55:23;23.70;99.90
11944;DHT22;6031;50.220;10.122;2023-08-08T11:00:33;24.10;99.90
11944;DHT22;6031;50.220;10.122;2023-08-08T11:03:00;24.20;99.90
11944;DHT22;6031;50.220;10.122;2023-08-08T11:05:28;25.40;99.90
11944;DHT22;6031;50.220;10.122;2023-08-08T11:07:55;25.60;99.90
11944;DHT22;6031;50.220;10.122;2023-08-08T11:10:21;26.20;99.90
11944;DHT22;6031;50.220;10.122;2023-08-08T11:12:56;26.40;99.90
11944;DHT22;6031;50.220;10.122;2023-08-08T11:15:22;26.00;99.90
11944;DHT22;6031;50.220;10.122;2023-08-08T11:17:49;26.40;99.90
11944;DHT22;6031;50.220;10.122;2023-08-08T11:20:14;25.10;99.90
11944;DHT22;6031;50.220;10.122;2023-08-08T11:22:40;23.60;99.90
11944;DHT22;6031;50.220;10.122;2023-08-08T11:25:06;22.80;99.90
11944;DHT22;6031;50.220;10.122;2023-08-08T11:27:33;23.50;99.90
11944;DHT22;6031;50.220;10.122;2023-08-08T11:29:58;23.30;99.90
11944;DHT22;6031;50.220;10.122;2023-08-08T11:32:27;24.20;99.90
11944;DHT22;6031;50.220;10.122;2023-08-08T11:34:54;24.50;99.90
11944;DHT22;6031;50.220;10.122;2023-08-08T11:37:19;23.90;99.90
11944;DHT22;6031;50.220;10.122;2023-08-08T11:39:45;23.90;99.90
11944;DHT22;6031;50.220;10.122;2023-08-08T11:42:11;24.50;99.90
11944;DHT22;6031;50.220;10.122;2023-08-08T11:44:37;24.40;99.90
11944;DHT22;6031;50.220;10.122;2023-08-08T11:47:03;25.30;99.90
11944;DHT22;6031;50.220;10.122;2023-08-08T11:49:29;25.50;99.90
11944;DHT22;6031;50.220;10.122;2023-08-08T11:51:54;24.50;99.90
11944;DHT22;6031;50.220;10.122;2023-08-08T11:54:27;23.40;99.90
11944;DHT22;6031;50.220;10.122;2023-08-08T11:56:53;23.40;99.90
11944;DHT22;6031;50.220;10.122;2023-08-08T11:59:19;24.30;99.90
11944;DHT22;6031;50.220;10.122;2023-08-08T12:01:45;23.60;99.90
11944;DHT22;6031;50.220;10.122;2023-08-08T12:04:10;23.40;1.00
11944;DHT22;6031;50.220;10.122;2023-08-08T12:06:40;24.00;99.90
11944;DHT22;6031;50.220;10.122;2023-08-08T12:09:05;24.70;99.90
11944;DHT22;6031;50.220;10.122;2023-08-08T12:11:35;25.30;99.90
11944;DHT22;6031;50.220;10.122;2023-08-08T12:14:02;25.80;99.90
11944;DHT22;6031;50.220;10.122;2023-08-08T12:16:28;25.20;99.90
11944;DHT22;6031;50.220;10.122;2023-08-08T12:18:59;24.80;99.90
11944;DHT22;6031;50.220;10.122;2023-08-08T12:21:26;24.30;99.90
11944;DHT22;6031;50.220;10.122;2023-08-08T12:23:51;23.80;99.90
11944;DHT22;6031;50.220;10.122;2023-08-08T12:26:18;23.60;99.90
11944;DHT22;6031;50.220;10.122;2023-08-08T12:28:43;23.70;99.90
11944;DHT22;6031;50.220;10.122;2023-08-08T12:31:09;23.50;99.90
11944;DHT22;6031;50.220;10.122;2023-08-08T12:33:35;24.10;99.90
11944;DHT22;6031;50.220;10.122;2023-08-08T12:36:00;24.60;99.90
11944;DHT22;6031;50.220;10.122;2023-08-08T12:38:26;25.60;99.90
11944;DHT22;6031;50.220;10.122;2023-08-08T12:40:51;25.70;99.90
11944;DHT22;6031;50.220;10.122;2023-08-08T12:43:17;25.60;99.90
11944;DHT22;6031;50.220;10.122;2023-08-08T12:45:46;25.80;99.90
11944;DHT22;6031;50.220;10.122;2023-08-08T12:48:13;25.80;99.90
11944;DHT22;6031;50.220;10.122;2023-08-08T12:50:39;25.90;99.90
11944;DHT22;6031;50.220;10.122;2023-08-08T12:53:04;25.20;99.90
11944;DHT22;6031;50.220;10.122;2023-08-08T12:55:30;24.20;99.90
11944;DHT22;6031;50.220;10.122;2023-08-08T12:57:56;24.20;99.90
11944;DHT22;6031;50.220;10.122;2023-08-08T13:00:22;24.60;99.90
11944;DHT22;6031;50.220;10.122;2023-08-08T13:02:48;23.80;99.90
11944;DHT22;6031;50.220;10.122;2023-08-08T13:05:14;22.70;99.90
11944;DHT22;6031;50.220;10.122;2023-08-08T13:07:39;23.10;99.90
11944;DHT22;6031;50.220;10.122;2023-08-08T13:10:05;23.90;99.90
11944;DHT22;6031;50.220;10.122;2023-08-08T13:12:31;24.70;99.90
11944;DHT22;6031;50.220;10.122;2023-08-08T13:14:57;24.60;99.90
11944;DHT22;6031;50.220;10.122;2023-08-08T13:17:22;24.80;99.90
11944;DHT22;6031;50.220;10.122;2023-08-08T13:19:48;25.40;99.90
11944;DHT22;6031;50.220;10.122;2023-08-08T13:22:13;25.10;99.90
11944;DHT22;6031;50.220;10.122;2023-08-08T13:24:39;23.10;99.90
11944;DHT22;6031;50.220;10.122;2023-08-08T13:27:04;22.60;99.90
11944;DHT22;6031;50.220;10.122;2023-08-08T13:29:30;23.30;99.90
11944;DHT22;6031;50.220;10.122;2023-08-08T13:31:56;23.70;99.90
11944;DHT22;6031;50.220;10.122;2023-08-08T13:34:21;24.10;99.90
11944;DHT22;6031;50.220;10.122;2023-08-08T13:36:47;24.30;99.90
11944;DHT22;6031;50.220;10.122;2023-08-08T13:39:12;24.10;99.90
11944;DHT22;6031;50.220;10.122;2023-08-08T13:41:39;24.10;99.90
11944;DHT22;6031;50.220;10.122;2023-08-08T13:44:04;24.00;99.90
11944;DHT22;6031;50.220;10.122;2023-08-08T13:46:30;24.10;99.90
11944;DHT22;6031;50.220;10.122;2023-08-08T13:48:55;24.30;99.90
11944;DHT22;6031;50.220;10.122;2023-08-08T13:51:21;23.90;99.90
11944;DHT22;6031;50.220;10.122;2023-08-08T13:53:47;23.70;99.90
11944;DHT22;6031;50.220;10.122;2023-08-08T13:56:14;23.40;99.90
11944;DHT22;6031;50.220;10.122;2023-08-08T13:58:40;23.10;99.90
11944;DHT22;6031;50.220;10.122;2023-08-08T14:01:05;23.20;99.90
11944;DHT22;6031;50.220;10.122;2023-08-08T14:03:31;23.60;99.90
11944;DHT22;6031;50.220;10.122;2023-08-08T14:05:57;23.30;99.90
11944;DHT22;6031;50.220;10.122;2023-08-08T14:08:23;22.90;99.90
11944;DHT22;6031;50.220;10.122;2023-08-08T14:10:48;22.90;99.90
11944;DHT22;6031;50.220;10.122;2023-08-08T14:13:14;23.00;99.90
11944;DHT22;6031;50.220;10.122;2023-08-08T14:15:39;23.70;99.90
11944;DHT22;6031;50.220;10.122;2023-08-08T14:18:05;24.40;99.90
11944;DHT22;6031;50.220;10.122;2023-08-08T14:20:31;24.30;99.90
11944;DHT22;6031;50.220;10.122;2023-08-08T14:22:56;23.70;99.90
11944;DHT22;6031;50.220;10.122;2023-08-08T14:25:22;23.80;99.90
11944;DHT22;6031;50.220;10.122;2023-08-08T14:27:48;24.00;99.90
11944;DHT22;6031;50.220;10.122;2023-08-08T14:30:13;23.50;99.90
11944;DHT22;6031;50.220;10.122;2023-08-08T14:32:39;23.50;99.90
11944;DHT22;6031;50.220;10.122;2023-08-08T14:35:05;23.60;99.90
11944;DHT22;6031;50.220;10.122;2023-08-08T14:37:31;23.20;99.90
11944;DHT22;6031;50.220;10.122;2023-08-08T14:39:57;22.70;99.90
11944;DHT22;6031;50.220;10.122;2023-08-08T14:42:23;22.60;99.90
11944;DHT22;6031;50.220;10.122;2023-08-08T14:44:48;22.60;99.90
11944;DHT22;6031;50.220;10.122;2023-08-08T14:47:14;22.70;99.90
11944;DHT22;6031;50.220;10.122;2023-08-08T14:49:40;22.70;99.90
11944;DHT22;6031;50.220;10.122;2023-08-08T14:52:05;22.20;99.90
11944;DHT22;6031;50.220;10.122;2023-08-08T14:54:34;22.10;99.90
11944;DHT22;6031;50.220;10.122;2023-08-08T14:56:59;22.00;99.90
11944;DHT22;6031;50.220;10.122;2023-08-08T14:59:28;21.90;99.90
11944;DHT22;6031;50.220;10.122;2023-08-08T15:01:53;21.90;99.90
11944;DHT22;6031;50.220;10.122;2023-08-08T15:04:19;21.60;99.90
11944;DHT22;6031;50.220;10.122;2023-08-08T15:06:45;21.40;99.90
11944;DHT22;6031;50.220;10.122;2023-08-08T15:09:10;21.30;99.90
11944;DHT22;6031;50.220;10.122;2023-08-08T15:11:36;21.50;99.90
11944;DHT22;6031;50.220;10.122;2023-08-08T15:14:02;21.60;99.90
11944;DHT22;6031;50.220;10.122;2023-08-08T15:16:28;21.90;99.90
11944;DHT22;6031;50.220;10.122;2023-08-08T15:18:54;22.20;99.90
11944;DHT22;6031;50.220;10.122;2023-08-08T15:21:20;22.00;99.90
11944;DHT22;6031;50.220;10.122;2023-08-08T15:23:46;22.00;99.90
11944;DHT22;6031;50.220;10.122;2023-08-08T15:26:12;22.00;99.90
11944;DHT22;6031;50.220;10.122;2023-08-08T15:28:37;21.90;99.90
11944;DHT22;6031;50.220;10.122;2023-08-08T15:31:04;21.80;99.90
11944;DHT22;6031;50.220;10.122;2023-08-08T15:33:29;21.60;99.90